createdAt,value
2018-12-29T00:06:52.488Z,46.65
2018-12-29T00:12:27.007Z,41.18
2018-12-29T01:04:09.269Z,68.10
2018-12-29T01:16:21.449Z,48.80
2018-12-29T01:18:55.048Z,81.63
2018-12-29T01:21:26.530Z,68.02
2018-12-29T01:24:00.818Z,65.17
2018-12-29T01:31:51.066Z,54.25
2018-12-29T01:34:23.332Z,69.75
2018-12-29T01:36:57.842Z,66.33
2018-12-29T01:39:26.552Z,77.12
2018-12-29T01:41:59.537Z,64.37
2018-12-29T01:44:31.473Z,78.33
2018-12-29T09:11:40.357Z,42.58
2018-12-29T09:14:28.811Z,49.35
2018-12-29T09:25:13.967Z,43.40
2018-12-29T09:28:07.206Z,44.77
2018-12-29T09:36:21.766Z,43.10
2018-12-29T09:42:07.636Z,47.30
2018-12-29T09:44:52.558Z,44.63
2018-12-29T09:50:31.565Z,44.25
2018-12-29T09:53:21.922Z,42.60
2018-12-29T09:56:10.740Z,44.75
2018-12-29T10:01:27.877Z,42.07
2018-12-29T10:04:24.514Z,36.28
2018-12-29T10:07:16.229Z,39.67
2018-12-29T10:10:09.196Z,41.73
2018-12-29T10:15:26.550Z,44.57
2018-12-29T10:18:16.566Z,41.70
2018-12-29T10:23:33.202Z,44.67
2018-12-29T10:26:27.651Z,39.85
2018-12-29T10:29:20.885Z,39.78
2018-12-29T10:34:38.042Z,34.43
2018-12-29T10:40:13.351Z,38.93
2018-12-29T10:42:49.710Z,40.00
2018-12-29T10:45:41.717Z,39.10
2018-12-29T10:48:34.170Z,53.75
2018-12-29T10:51:31.112Z,44.73
2018-12-29T10:56:51.085Z,39.97
2018-12-29T10:59:43.630Z,38.00
2018-12-29T11:02:34.730Z,35.00
2018-12-29T11:05:01.658Z,33.45
2018-12-29T11:10:20.938Z,48.00
2018-12-29T11:13:12.118Z,35.15
2018-12-29T11:15:58.587Z,39.63
2018-12-29T11:21:27.953Z,34.13
2018-12-29T11:24:19.998Z,31.93
2018-12-29T11:29:36.229Z,32.30
2018-12-29T11:32:25.216Z,32.40
2018-12-29T11:35:07.627Z,30.23
2018-12-29T11:37:58.773Z,25.52
2018-12-29T11:40:42.068Z,32.53
2018-12-29T11:43:31.373Z,31.77
2018-12-29T11:45:58.348Z,35.13
2018-12-29T11:48:49.119Z,32.98
2018-12-29T11:51:45.647Z,36.60
2018-12-29T11:54:39.950Z,31.45
2018-12-29T11:57:06.901Z,32.50
2018-12-29T11:59:56.795Z,30.72
2018-12-29T12:05:51.778Z,29.57
2018-12-29T12:08:49.220Z,26.87
2018-12-29T12:11:34.271Z,28.10
2018-12-29T12:14:25.814Z,34.85
2018-12-29T12:19:43.333Z,35.13
2018-12-29T12:22:34.004Z,29.05
2018-12-29T12:25:22.952Z,30.25
2018-12-29T12:28:11.829Z,34.88
2018-12-29T12:31:02.881Z,30.85
2018-12-29T12:33:44.720Z,36.42
2018-12-29T12:36:34.663Z,38.35
2018-12-29T12:41:51.018Z,29.77
2018-12-29T12:44:45.973Z,33.75
2018-12-29T12:47:36.845Z,31.12
2018-12-29T12:50:29.043Z,27.85
2018-12-29T12:53:22.527Z,29.67
2018-12-29T12:56:13.410Z,28.35
2018-12-29T12:58:40.348Z,29.92
2018-12-29T13:01:29.429Z,29.90
2018-12-29T13:04:17.439Z,24.02
2018-12-29T13:07:07.773Z,24.85
2018-12-29T13:09:55.481Z,28.25
2018-12-29T13:12:45.033Z,28.57
2018-12-29T13:17:59.761Z,29.43
2018-12-29T13:20:48.708Z,28.05
2018-12-29T13:23:15.629Z,24.65
2018-12-29T13:26:04.007Z,30.55
2018-12-29T13:28:45.985Z,29.10
2018-12-29T13:31:33.803Z,28.25
2018-12-29T13:34:15.008Z,27.70
2018-12-29T13:37:03.118Z,27.37
2018-12-29T13:39:44.561Z,22.25
2018-12-29T13:42:33.074Z,23.77
2018-12-29T13:45:16.189Z,23.43
2018-12-29T13:47:44.895Z,27.10
2018-12-29T13:50:13.625Z,24.57
2018-12-29T13:56:24.186Z,27.22
2018-12-29T13:58:52.755Z,26.65
2018-12-29T14:01:21.360Z,23.63
2018-12-29T14:03:50.008Z,23.87
2018-12-29T14:06:18.697Z,31.77
2018-12-29T14:08:47.629Z,26.00
2018-12-29T14:11:16.231Z,26.02
2018-12-29T14:13:44.839Z,24.77
2018-12-29T14:16:13.426Z,34.27
2018-12-29T14:18:41.914Z,27.45
2018-12-29T14:21:10.918Z,25.50
2018-12-29T14:23:39.550Z,31.73
2018-12-29T14:26:08.154Z,29.20
2018-12-29T14:28:36.902Z,30.62
2018-12-29T14:31:05.558Z,26.77
2018-12-29T14:33:34.372Z,27.98
2018-12-29T14:36:02.943Z,29.15
2018-12-29T14:38:31.580Z,30.80
2018-12-29T14:41:00.210Z,28.47
2018-12-29T14:43:28.892Z,33.28
2018-12-29T14:45:57.518Z,31.50
2018-12-29T14:48:26.076Z,29.57
2018-12-29T14:50:55.161Z,31.05
2018-12-29T14:53:23.722Z,32.08
2018-12-29T14:55:53.001Z,34.50
2018-12-29T14:58:21.599Z,40.25
2018-12-29T15:00:50.197Z,39.33
2018-12-29T15:03:18.770Z,33.02
2018-12-29T15:05:47.384Z,40.90
2018-12-29T15:08:15.953Z,46.58
2018-12-29T15:10:45.125Z,41.00
2018-12-29T15:13:14.085Z,33.60
2018-12-29T15:15:42.774Z,48.30
2018-12-29T15:18:11.528Z,37.60
2018-12-29T15:20:40.529Z,36.60
2018-12-29T15:23:09.396Z,59.67
2018-12-29T15:25:37.945Z,68.72
2018-12-29T15:28:06.532Z,33.28
2018-12-29T15:30:35.504Z,34.95
2018-12-29T15:33:04.142Z,35.68
2018-12-29T15:35:32.793Z,29.27
2018-12-29T15:38:02.647Z,31.70
2018-12-29T15:40:31.240Z,33.95
2018-12-29T15:42:59.869Z,31.12
2018-12-29T15:45:28.692Z,41.00
2018-12-29T15:47:57.307Z,30.37
2018-12-29T15:50:25.976Z,30.88
2018-12-29T15:52:54.802Z,34.67
2018-12-29T15:55:23.387Z,31.15
2018-12-29T15:57:51.985Z,36.03
2018-12-29T16:00:20.571Z,32.15
2018-12-29T16:02:49.465Z,27.55
2018-12-29T16:05:18.071Z,32.38
2018-12-29T16:07:46.927Z,35.92
2018-12-29T16:10:15.498Z,25.70
2018-12-29T16:12:44.297Z,37.75
2018-12-29T16:15:13.237Z,38.25
2018-12-29T16:17:41.800Z,36.38
2018-12-29T16:20:12.106Z,37.58
2018-12-29T16:22:40.687Z,38.65
2018-12-29T16:25:11.081Z,44.30
2018-12-29T16:27:39.662Z,42.58
2018-12-29T16:30:08.271Z,40.92
2018-12-29T16:32:36.832Z,38.65
2018-12-29T16:35:05.558Z,39.80
2018-12-29T16:37:34.179Z,41.90
2018-12-29T16:40:02.878Z,42.88
2018-12-29T16:42:31.867Z,41.85
2018-12-29T16:45:00.516Z,44.45
2018-12-29T16:47:29.071Z,49.93
2018-12-29T16:49:57.757Z,43.25
2018-12-29T16:52:26.777Z,58.35
2018-12-29T16:54:55.308Z,51.42
2018-12-29T16:57:23.870Z,89.10
2018-12-29T16:59:52.581Z,69.60
2018-12-29T17:02:21.443Z,69.60
2018-12-29T17:04:51.789Z,53.17
2018-12-29T17:07:21.942Z,53.78
2018-12-29T17:09:52.052Z,59.85
2018-12-29T17:12:21.051Z,55.33
2018-12-29T17:14:50.067Z,46.63
2018-12-29T17:17:18.713Z,61.37
2018-12-29T17:19:53.832Z,42.48
2018-12-29T17:22:25.794Z,35.35
2018-12-29T17:24:56.124Z,51.35
2018-12-29T17:27:27.900Z,50.65
2018-12-29T17:29:58.514Z,51.77
2018-12-29T17:32:30.979Z,42.65
2018-12-29T17:34:59.588Z,47.10
2018-12-29T17:37:29.687Z,46.60
2018-12-29T17:39:58.368Z,41.35
2018-12-29T17:42:27.151Z,41.65
2018-12-29T17:44:55.740Z,49.88
2018-12-29T17:47:24.284Z,36.48
2018-12-29T17:49:52.798Z,49.13
2018-12-29T17:52:21.370Z,45.35
2018-12-29T17:54:49.972Z,44.45
2018-12-29T17:57:18.862Z,34.25
2018-12-29T17:59:47.471Z,48.55
2018-12-29T18:02:16.051Z,45.58
2018-12-29T18:04:44.620Z,45.55
2018-12-29T18:07:13.203Z,42.15
2018-12-29T18:09:42.322Z,46.80
2018-12-29T18:12:10.935Z,37.28
2018-12-29T18:14:39.500Z,47.23
2018-12-29T18:17:09.991Z,32.78
2018-12-29T18:19:40.633Z,45.75
2018-12-29T18:22:11.901Z,40.00
2018-12-29T18:24:40.607Z,40.10
2018-12-29T18:27:09.327Z,44.65
2018-12-29T18:29:38.756Z,44.98
2018-12-29T18:32:07.371Z,40.23
2018-12-29T18:34:38.565Z,52.43
2018-12-29T18:37:10.216Z,52.85
2018-12-29T18:39:41.643Z,50.85
2018-12-29T18:42:10.219Z,45.85
2018-12-29T18:44:42.198Z,46.77
2018-12-29T18:47:10.804Z,48.92
2018-12-29T18:49:41.943Z,47.15
2018-12-29T18:52:12.095Z,50.65
2018-12-29T18:54:40.982Z,58.02
2018-12-29T18:57:15.499Z,50.12
2018-12-29T18:59:44.182Z,46.00
2018-12-29T19:02:14.011Z,52.13
2018-12-29T19:04:48.718Z,49.08
2018-12-29T19:07:19.277Z,44.60
2018-12-29T19:09:49.427Z,52.83
2018-12-29T19:12:18.137Z,45.20
2018-12-29T19:14:46.764Z,55.40
2018-12-29T19:17:15.617Z,50.40
2018-12-29T19:19:47.680Z,54.75
2018-12-29T19:22:17.812Z,51.60
2018-12-29T19:24:48.048Z,53.38
2018-12-29T19:27:18.653Z,46.00
2018-12-29T19:29:48.601Z,50.70
2018-12-29T19:32:20.545Z,50.43
2018-12-29T19:35:11.813Z,50.30
2018-12-29T19:37:45.415Z,58.08
2018-12-29T19:40:14.023Z,62.10
2018-12-29T19:42:45.086Z,52.25
2018-12-29T19:45:13.648Z,52.78
2018-12-29T19:47:42.902Z,55.12
2018-12-29T19:50:16.300Z,57.98
2018-12-29T19:52:45.727Z,52.88
2018-12-29T19:55:14.577Z,50.03
2018-12-29T19:57:43.183Z,55.03
2018-12-29T20:00:14.223Z,51.95
2018-12-29T20:02:55.001Z,51.68
2018-12-29T20:05:48.439Z,41.88
2018-12-29T20:09:02.531Z,43.05
2018-12-29T20:11:35.178Z,30.52
2018-12-29T20:14:11.483Z,45.45
2018-12-29T20:17:04.092Z,47.43
2018-12-29T20:19:32.962Z,47.80
2018-12-29T20:22:01.652Z,52.00
2018-12-29T20:24:39.630Z,36.50
2018-12-29T20:27:08.734Z,38.42
2018-12-29T20:29:43.675Z,46.33
2018-12-29T20:32:12.239Z,37.17
2018-12-29T20:35:00.729Z,29.55
2018-12-29T20:37:37.158Z,51.02
2018-12-29T20:40:11.888Z,40.67
2018-12-29T20:42:58.703Z,51.05
2018-12-29T20:45:33.458Z,43.95
2018-12-29T20:48:23.354Z,38.75
2018-12-29T20:51:01.441Z,42.13
2018-12-29T20:53:41.435Z,36.05
2018-12-29T20:56:17.472Z,24.12
2018-12-29T21:01:55.524Z,37.08
2018-12-29T21:04:43.515Z,41.53
2018-12-29T21:10:10.878Z,43.08
2018-12-29T21:12:53.511Z,45.40
2018-12-29T21:15:18.175Z,46.10
2018-12-29T21:17:47.172Z,45.95
2018-12-29T21:20:18.914Z,52.13
2018-12-29T21:22:47.973Z,41.08
2018-12-29T21:25:21.252Z,37.28
2018-12-29T21:27:51.640Z,41.92
2018-12-29T21:30:28.493Z,31.62
2018-12-29T21:32:57.255Z,44.53
2018-12-29T21:35:32.960Z,49.08
2018-12-29T21:38:22.371Z,48.78
2018-12-29T21:50:15.183Z,37.08
2018-12-29T21:52:49.418Z,49.80
2018-12-29T21:55:21.961Z,35.83
2018-12-29T21:57:52.989Z,44.42
2018-12-29T22:00:23.652Z,27.20
2018-12-29T22:02:59.149Z,36.85
2018-12-29T22:05:34.565Z,40.03
2018-12-29T22:08:04.534Z,41.70
2018-12-29T22:10:33.120Z,45.28
2018-12-29T22:13:03.767Z,35.40
2018-12-29T22:15:37.712Z,44.48
2018-12-29T22:18:06.254Z,29.42
2018-12-29T22:20:40.043Z,37.75
2018-12-29T22:23:10.185Z,46.13
2018-12-29T22:25:48.289Z,28.05
2018-12-29T22:28:19.865Z,38.40
2018-12-29T22:30:48.486Z,40.20
2018-12-29T22:33:20.063Z,40.28
2018-12-29T22:35:55.267Z,37.05
2018-12-29T22:38:24.274Z,40.40
2018-12-29T22:40:54.246Z,41.77
2018-12-29T22:43:23.003Z,38.30
2018-12-29T22:45:52.265Z,48.90
2018-12-29T22:48:22.616Z,42.60
2018-12-29T22:50:55.543Z,28.50
2018-12-29T22:53:32.763Z,37.67
2018-12-29T22:56:03.220Z,32.25
2018-12-29T22:58:57.522Z,24.25
2018-12-29T23:04:17.233Z,47.83
2018-12-29T23:06:54.866Z,37.58
2018-12-29T23:09:29.708Z,31.15
2018-12-29T23:11:59.155Z,36.38
2018-12-29T23:14:32.224Z,36.00
2018-12-29T23:17:01.427Z,55.23
2018-12-29T23:19:30.095Z,47.40
2018-12-29T23:22:03.306Z,43.40
2018-12-29T23:24:35.114Z,40.35
2018-12-29T23:27:13.856Z,43.60
2018-12-29T23:29:44.792Z,50.52
2018-12-29T23:32:13.518Z,37.58
2018-12-29T23:34:47.531Z,23.05
2018-12-29T23:37:16.186Z,38.50
2018-12-29T23:39:46.364Z,36.80
2018-12-29T23:42:25.768Z,49.03
2018-12-29T23:44:54.485Z,40.78
2018-12-29T23:47:23.501Z,39.75
2018-12-29T23:49:53.439Z,42.48
2018-12-29T23:52:22.176Z,34.85
2018-12-29T23:54:52.323Z,30.02
2018-12-29T23:57:21.012Z,22.10
2018-12-29T23:59:51.309Z,24.85
